Time;durP1;ratioP1;P1;durP2;ratioP2;P2;SDS_P1;SDS_P2;PMS_P1;PMS_P2;Temp;Humidity;BMP_temperature;BMP_pressure;BME280_temperature;BME280_humidity;BME280_pressure;Samples;Min_cycle;Max_cycle;Signal;HPM_P1;HPM_P2
2021/04/30 00:02:20;;;;;;;5.93;5.33;;;;;;;11.85;100.00;94538.75;5013001;28;20209;-85
2021/04/30 00:04:47;;;;;;;8.67;6.33;;;;;;;11.90;100.00;94573.13;5012801;28;20222;-85
2021/04/30 00:07:14;;;;;;;7.33;5.13;;;;;;;11.96;100.00;94574.13;5012828;28;20253;-84
2021/04/30 00:09:41;;;;;;;6.50;5.73;;;;;;;12.09;100.00;94635.47;5012935;28;20745;-84
2021/04/30 00:12:08;;;;;;;7.43;6.60;;;;;;;12.06;100.00;94695.63;5012756;28;20738;-84
2021/04/30 00:14:35;;;;;;;6.67;4.97;;;;;;;11.78;100.00;94662.44;5012968;28;20199;-84
2021/04/30 00:17:03;;;;;;;4.40;4.10;;;;;;;11.55;100.00;94644.44;5012494;28;20362;-84
2021/04/30 00:19:30;;;;;;;5.87;4.30;;;;;;;11.44;100.00;94613.50;5012802;28;20200;-85
2021/04/30 00:21:57;;;;;;;6.90;4.60;;;;;;;11.40;100.00;94584.16;5012629;28;20204;-84
2021/04/30 00:24:24;;;;;;;5.03;4.53;;;;;;;11.49;100.00;94566.31;5012566;28;20223;-84
2021/04/30 00:26:51;;;;;;;4.30;3.90;;;;;;;11.39;100.00;94581.72;5012328;28;20230;-83
2021/04/30 00:29:17;;;;;;;6.17;4.60;;;;;;;11.33;100.00;94587.81;5012568;28;20229;-83
2021/04/30 00:31:44;;;;;;;6.80;5.70;;;;;;;11.33;100.00;94587.81;5012456;28;20199;-83
2021/04/30 00:34:12;;;;;;;6.67;5.10;;;;;;;11.25;100.00;94583.56;5012494;28;20705;-84
2021/04/30 00:36:39;;;;;;;6.47;4.97;;;;;;;11.22;100.00;94568.19;5011561;28;20241;-85
2021/04/30 00:39:07;;;;;;;7.20;5.40;;;;;;;11.10;100.00;94502.28;5012606;28;20223;-85
2021/04/30 00:41:34;;;;;;;6.03;5.47;;;;;;;11.25;100.00;94348.72;5012686;28;20206;-84
2021/04/30 00:44:04;;;;;;;6.07;5.37;;;;;;;11.49;100.00;94234.06;5012168;28;20725;-84
2021/04/30 00:46:31;;;;;;;7.03;5.03;;;;;;;11.69;100.00;94189.97;5012722;28;20238;-85
2021/04/30 00:48:58;;;;;;;6.33;5.13;;;;;;;11.41;100.00;94224.59;5012116;28;20710;-85
2021/04/30 00:51:25;;;;;;;6.40;5.43;;;;;;;11.17;100.00;94192.81;5012342;28;20233;-85
2021/04/30 00:53:53;;;;;;;7.30;4.97;;;;;;;11.33;100.00;94111.78;5012037;28;20709;-84
2021/04/30 00:56:21;;;;;;;5.60;5.10;;;;;;;11.43;100.00;94064.75;5012229;28;20200;-83
2021/04/30 00:58:48;;;;;;;7.07;5.10;;;;;;;11.31;100.00;94188.25;5012336;28;20204;-83
2021/04/30 01:01:16;;;;;;;7.53;5.67;;;;;;;11.28;100.00;94236.00;5012243;28;20206;-85
2021/04/30 01:03:43;;;;;;;6.33;5.70;;;;;;;11.18;100.00;94214.63;5011790;28;20195;-84
2021/04/30 01:06:11;;;;;;;6.17;5.57;;;;;;;10.78;100.00;94172.84;5012077;28;20231;-85
2021/04/30 01:08:40;;;;;;;6.73;5.40;;;;;;;10.59;100.00;94027.44;5011989;28;20621;-84
2021/04/30 01:11:07;;;;;;;6.33;5.53;;;;;;;10.60;100.00;94015.94;5012066;28;20292;-85
2021/04/30 01:13:34;;;;;;;8.43;5.80;;;;;;;10.65;100.00;93981.94;5012297;28;20203;-85
2021/04/30 01:16:01;;;;;;;7.17;6.47;;;;;;;10.68;100.00;93984.13;5011717;28;20766;-84
2021/04/30 01:18:28;;;;;;;6.37;5.80;;;;;;;11.13;100.00;94030.44;5011976;28;20286;-85
2021/04/30 01:20:55;;;;;;;6.57;5.80;;;;;;;11.23;100.00;94095.69;5012629;28;20282;-85
2021/04/30 01:23:23;;;;;;;7.30;5.27;;;;;;;11.24;100.00;94060.47;5011985;28;20580;-85
2021/04/30 01:25:50;;;;;;;5.87;5.20;;;;;;;11.11;100.00;94116.59;5011770;28;20259;-84
2021/04/30 01:28:17;;;;;;;8.23;5.63;;;;;;;11.02;100.00;94110.03;5011692;28;20199;-84
2021/04/30 01:30:43;;;;;;;10.00;7.17;;;;;;;10.82;100.00;94149.56;5011962;28;20208;-85
2021/04/30 01:33:18;;;;;;;9.30;5.70;;;;;;;10.71;100.00;94157.09;5011909;28;20223;-84
2021/04/30 01:35:45;;;;;;;8.80;5.30;;;;;;;10.81;100.00;94187.38;5012190;28;20283;-85
2021/04/30 01:38:12;;;;;;;5.97;5.37;;;;;;;11.06;100.00;94237.38;5011996;28;20627;-83
2021/04/30 01:40:40;;;;;;;5.83;4.60;;;;;;;11.10;100.00;94284.06;5011732;28;20290;-85
2021/04/30 01:43:09;;;;;;;5.90;5.07;;;;;;;11.13;100.00;94265.22;5011570;28;20288;-84
2021/04/30 01:45:37;;;;;;;5.27;4.80;;;;;;;10.86;100.00;94311.06;5012294;28;20314;-84
2021/04/30 01:48:07;;;;;;;9.73;5.50;;;;;;;10.74;100.00;94281.16;5013130;28;20562;-84
2021/04/30 01:50:34;;;;;;;6.53;4.70;;;;;;;10.82;100.00;94294.91;5015601;28;20237;-84
2021/04/30 01:53:01;;;;;;;5.90;4.83;;;;;;;11.02;100.00;94305.34;5015299;28;20199;-84
2021/04/30 01:55:30;;;;;;;10.47;6.00;;;;;;;11.15;100.00;94299.19;5015200;28;20664;-84
2021/04/30 01:57:59;;;;;;;8.40;5.13;;;;;;;11.31;100.00;94321.56;5015303;28;20210;-84
2021/04/30 02:00:27;;;;;;;11.70;5.40;;;;;;;11.26;100.00;94345.88;5015337;28;20643;-84
2021/04/30 02:02:55;;;;;;;10.23;5.70;;;;;;;11.25;100.00;94325.84;5015011;28;20200;-84
2021/04/30 02:05:24;;;;;;;5.70;4.50;;;;;;;11.14;100.00;94314.16;5015143;28;20234;-84
2021/04/30 02:07:51;;;;;;;8.37;5.43;;;;;;;11.21;100.00;94323.84;5015128;28;20286;-84
2021/04/30 02:10:20;;;;;;;10.80;5.77;;;;;;;11.18;100.00;94278.53;5015225;28;20281;-84
2021/04/30 02:12:47;;;;;;;6.60;5.90;;;;;;;11.04;100.00;94213.13;5014850;28;20203;-84
2021/04/30 02:15:17;;;;;;;6.07;5.47;;;;;;;10.92;100.00;94139.41;5015318;28;20230;-84
2021/04/30 02:17:44;;;;;;;9.57;5.57;;;;;;;11.00;100.00;94059.47;4995541;28;20243;-84
2021/04/30 02:20:13;;;;;;;7.13;5.37;;;;;;;10.99;100.00;94036.84;4995757;28;20205;-84
2021/04/30 02:22:41;;;;;;;6.67;5.50;;;;;;;10.97;100.00;94015.22;4995330;28;20201;-84
2021/04/30 02:25:11;;;;;;;6.63;6.03;;;;;;;10.96;100.00;94101.16;4995532;28;20311;-84
2021/04/30 02:27:39;;;;;;;9.40;5.90;;;;;;;11.10;100.00;94088.72;4995211;28;20275;-84
2021/04/30 02:30:07;;;;;;;8.07;6.53;;;;;;;11.07;100.00;94104.91;4994911;28;20206;-84
2021/04/30 02:32:36;;;;;;;6.83;5.40;;;;;;;11.15;100.00;94094.94;4995366;28;20232;-84
2021/04/30 02:35:05;;;;;;;68.13;60.70;;;;;;;10.86;100.00;94058.78;4995391;28;20614;-84
2021/04/30 02:37:31;;;;;;;13.43;11.67;;;;;;;11.08;100.00;94041.59;4995053;28;20195;-84
2021/04/30 02:39:58;;;;;;;16.20;12.33;;;;;;;11.00;100.00;94041.06;4994995;28;20700;-84
2021/04/30 02:42:25;;;;;;;15.23;11.83;;;;;;;10.93;100.00;94026.16;4994827;28;20206;-84
2021/04/30 02:44:52;;;;;;;10.37;8.33;;;;;;;10.90;100.00;93954.84;4994876;28;20230;-84
2021/04/30 02:47:28;;;;;;;9.40;6.87;;;;;;;11.10;100.00;93886.28;4994857;28;20200;-84
2021/04/30 02:49:56;;;;;;;8.70;7.80;;;;;;;11.11;100.00;93893.16;4994962;28;20207;-84
2021/04/30 02:52:23;;;;;;;12.90;8.80;;;;;;;11.01;100.00;93946.22;4994517;28;20201;-83
2021/04/30 02:54:50;;;;;;;11.93;10.93;;;;;;;10.77;100.00;93932.09;4995157;28;20291;-85
2021/04/30 02:57:17;;;;;;;11.60;10.23;;;;;;;10.93;100.00;93888.69;4994642;28;20287;-84
2021/04/30 02:59:45;;;;;;;10.37;8.63;;;;;;;11.07;100.00;93871.75;4994405;28;20352;-84
2021/04/30 03:02:13;;;;;;;8.67;7.60;;;;;;;11.06;100.00;93872.00;4994329;28;20295;-84
2021/04/30 03:04:40;;;;;;;8.10;7.03;;;;;;;11.08;100.00;93896.22;4994973;28;20310;-84
2021/04/30 03:07:08;;;;;;;9.37;7.53;;;;;;;10.94;100.00;93938.44;4994384;28;20558;-84
2021/04/30 03:09:36;;;;;;;8.90;6.50;;;;;;;10.86;100.00;93912.41;4994773;28;20242;-84
2021/04/30 03:12:03;;;;;;;6.60;6.00;;;;;;;10.82;100.00;93884.19;4994196;28;20204;-84
2021/04/30 03:14:30;;;;;;;7.63;7.00;;;;;;;10.76;100.00;93858.75;4994255;28;20228;-84
2021/04/30 03:16:57;;;;;;;10.30;6.83;;;;;;;10.58;100.00;93810.44;5007701;28;20647;-84
2021/04/30 03:19:24;;;;;;;12.27;7.30;;;;;;;10.70;100.00;93800.00;5013870;28;20746;-84
2021/04/30 03:21:50;;;;;;;9.67;7.03;;;;;;;10.80;100.00;93817.91;5013609;28;20204;-84
2021/04/30 03:24:18;;;;;;;9.17;8.37;;;;;;;10.48;100.00;93834.59;5013492;28;20290;-84
2021/04/30 03:26:45;;;;;;;9.80;6.40;;;;;;;10.82;100.00;93813.22;5013722;28;20205;-85
2021/04/30 03:29:12;;;;;;;10.80;7.10;;;;;;;10.91;100.00;93853.94;5013726;28;20259;-83
2021/04/30 03:31:39;;;;;;;7.00;6.30;;;;;;;10.84;100.00;93871.59;5013580;28;20206;-84
2021/04/30 03:34:06;;;;;;;6.57;5.97;;;;;;;10.88;100.00;93870.97;5013599;28;20672;-83
2021/04/30 03:36:34;;;;;;;8.60;5.97;;;;;;;10.97;100.00;93887.22;5013926;28;20604;-84
2021/04/30 03:39:02;;;;;;;7.13;6.03;;;;;;;11.09;100.00;93947.78;5013550;28;20668;-84
2021/04/30 03:41:30;;;;;;;6.37;5.77;;;;;;;10.85;100.00;93980.97;5010630;28;20203;-83
2021/04/30 03:43:57;;;;;;;7.80;6.80;;;;;;;10.99;100.00;93955.38;4998044;28;20219;-82
2021/04/30 03:46:24;;;;;;;7.93;6.93;;;;;;;11.12;100.00;93921.06;5030301;28;20609;-83
2021/04/30 03:48:51;;;;;;;7.77;6.50;;;;;;;11.11;100.00;93924.69;5015672;28;20295;-83
2021/04/30 03:51:18;;;;;;;8.27;5.97;;;;;;;11.18;100.00;93938.56;5013112;28;20286;-83
2021/04/30 03:53:44;;;;;;;10.17;7.80;;;;;;;11.26;100.00;93934.88;5013030;28;20195;-82
2021/04/30 03:56:11;;;;;;;8.20;7.23;;;;;;;11.26;100.00;93948.00;5012923;28;20207;-83
2021/04/30 03:58:39;;;;;;;8.93;6.30;;;;;;;11.42;100.00;93974.50;5012938;28;20583;-85
2021/04/30 04:01:06;;;;;;;9.00;4.80;;;;;;;11.35;100.00;94021.13;5013092;28;20226;-84
2021/04/30 04:03:33;;;;;;;6.97;6.37;;;;;;;11.30;100.00;94012.28;5012860;28;20207;-84
2021/04/30 04:06:00;;;;;;;8.03;6.33;;;;;;;11.43;100.00;93989.28;5012677;28;20313;-84
2021/04/30 04:08:28;;;;;;;6.20;5.70;;;;;;;11.61;100.00;94003.47;5013033;28;20252;-84
2021/04/30 04:10:55;;;;;;;10.07;6.73;;;;;;;11.66;100.00;94080.69;5013583;28;20199;-84
2021/04/30 04:13:25;;;;;;;7.40;6.50;;;;;;;11.50;100.00;94091.81;5012832;28;20705;-84
2021/04/30 04:15:54;;;;;;;12.17;10.20;;;;;;;11.31;100.00;94048.06;5012899;28;20678;-81
2021/04/30 04:18:25;;;;;;;22.93;20.03;;;;;;;11.26;100.00;93990.09;5012818;28;20187;-81
2021/04/30 04:20:51;;;;;;;11.80;10.57;;;;;;;11.25;100.00;93896.44;5012643;28;20275;-84
2021/04/30 04:23:18;;;;;;;12.00;8.93;;;;;;;11.33;100.00;93790.97;5012461;28;20786;-79
2021/04/30 04:25:45;;;;;;;11.80;10.70;;;;;;;11.41;100.00;93761.69;5012357;28;20260;-83
2021/04/30 04:28:12;;;;;;;12.30;7.10;;;;;;;11.48;100.00;93696.66;5012995;28;20632;-83
2021/04/30 04:30:38;;;;;;;9.33;6.17;;;;;;;11.61;100.00;93709.59;5012687;28;20282;-83
2021/04/30 04:33:07;;;;;;;7.13;5.90;;;;;;;11.69;100.00;93670.81;5012396;28;20194;-83
2021/04/30 04:35:34;;;;;;;29.57;17.27;;;;;;;11.92;100.00;93615.56;5012741;28;20648;-89
2021/04/30 04:38:01;;;;;;;55.67;30.93;;;;;;;11.86;100.00;93608.59;5013146;28;20253;-87
2021/04/30 04:40:28;;;;;;;70.60;42.13;;;;;;;12.00;100.00;93593.34;5013008;28;20293;-93
2021/04/30 04:42:58;;;;;;;15.50;12.13;;;;;;;12.10;100.00;93560.13;5013050;28;20223;-87
2021/04/30 04:45:24;;;;;;;10.10;7.03;;;;;;;12.18;100.00;93540.53;5012528;28;20219;-88
2021/04/30 04:47:51;;;;;;;8.30;6.63;;;;;;;12.10;100.00;93525.09;5012499;28;20199;-86
2021/04/30 04:50:19;;;;;;;8.73;6.47;;;;;;;12.17;100.00;93501.28;5010743;28;20581;-86
2021/04/30 04:52:46;;;;;;;24.03;17.27;;;;;;;12.44;100.00;93468.03;5015759;28;20260;-88
2021/04/30 04:55:16;;;;;;;13.47;11.93;;;;;;;12.54;100.00;93470.84;5027149;28;20676;-87
2021/04/30 04:57:43;;;;;;;11.30;9.77;;;;;;;12.57;100.00;93499.34;5030598;28;20644;-84
2021/04/30 05:00:11;;;;;;;11.73;10.60;;;;;;;12.57;100.00;93522.25;5030887;28;20252;-88
2021/04/30 05:02:38;;;;;;;12.43;9.50;;;;;;;12.73;100.00;93504.88;5032543;28;20234;-87
2021/04/30 05:05:06;;;;;;;11.03;8.80;;;;;;;12.99;100.00;93477.03;5025413;28;20249;-87
2021/04/30 05:07:34;;;;;;;11.17;9.13;;;;;;;13.24;100.00;93474.81;5031607;28;20199;-84
2021/04/30 05:10:01;;;;;;;18.27;15.40;;;;;;;13.35;100.00;93544.34;5032077;28;20199;-85
2021/04/30 05:12:28;;;;;;;6.70;6.10;;;;;;;13.49;100.00;93693.34;5033236;28;20260;-84
2021/04/30 05:14:55;;;;;;;6.40;5.73;;;;;;;13.76;100.00;93824.72;5018443;28;20286;-88
2021/04/30 05:17:22;;;;;;;9.07;8.13;;;;;;;13.95;100.00;93923.78;5013694;28;20243;-86
2021/04/30 05:19:49;;;;;;;10.77;8.57;;;;;;;14.07;100.00;93963.38;5013002;28;20286;-83
2021/04/30 05:22:18;;;;;;;8.87;6.53;;;;;;;14.20;100.00;93975.47;5012255;28;20582;-86
2021/04/30 05:24:46;;;;;;;9.47;7.40;;;;;;;14.23;100.00;93967.88;5016664;28;20203;-85
2021/04/30 05:27:13;;;;;;;46.00;28.23;;;;;;;14.21;100.00;93980.53;5016170;28;20282;-83
2021/04/30 05:29:41;;;;;;;10.73;7.73;;;;;;;14.12;100.00;94007.56;5016029;28;20254;-84
2021/04/30 05:32:08;;;;;;;6.37;5.77;;;;;;;14.07;100.00;93970.50;5016288;28;20622;-85
2021/04/30 05:34:35;;;;;;;8.43;7.20;;;;;;;14.13;100.00;94006.50;5016340;28;20235;-83
2021/04/30 05:37:02;;;;;;;7.10;6.40;;;;;;;14.19;100.00;94104.13;5015806;28;20206;-83
2021/04/30 05:39:29;;;;;;;7.63;6.20;;;;;;;14.37;100.00;94140.13;5016019;28;20314;-85
2021/04/30 05:41:57;;;;;;;9.03;7.47;;;;;;;14.55;100.00;94143.69;5015909;28;20201;-84
2021/04/30 05:44:24;;;;;;;10.37;6.60;;;;;;;14.64;100.00;94163.44;5015929;28;20207;-84
2021/04/30 05:46:57;;;;;;;6.83;6.23;;;;;;;14.90;100.00;94218.44;5015412;28;20234;-84
2021/04/30 05:49:24;;;;;;;10.67;7.47;;;;;;;15.28;100.00;94295.59;5015818;28;20254;-86
2021/04/30 05:51:54;;;;;;;7.57;6.40;;;;;;;15.51;100.00;94334.41;5015562;28;20243;-85
2021/04/30 05:54:21;;;;;;;9.27;6.33;;;;;;;15.53;100.00;94396.69;5015709;28;20638;-85
2021/04/30 05:56:47;;;;;;;9.03;7.90;;;;;;;15.74;100.00;94408.50;5015335;28;20208;-85
2021/04/30 05:59:15;;;;;;;7.10;5.93;;;;;;;15.94;100.00;94469.03;5015508;28;20204;-85
2021/04/30 06:01:45;;;;;;;6.23;5.60;;;;;;;15.86;100.00;94487.91;5015405;28;20279;-86
2021/04/30 06:04:12;;;;;;;9.37;6.23;;;;;;;16.04;100.00;94455.97;5015607;28;20219;-86
2021/04/30 06:06:38;;;;;;;6.13;5.53;;;;;;;15.89;100.00;94477.66;5015289;28;20264;-86
2021/04/30 06:09:11;;;;;;;8.20;7.40;;;;;;;15.89;100.00;94423.88;5015699;28;20201;-85
2021/04/30 06:11:44;;;;;;;12.77;10.00;;;;;;;15.98;100.00;94448.16;5015164;28;20705;-85
2021/04/30 06:14:11;;;;;;;7.70;5.60;;;;;;;15.96;100.00;94469.56;5015173;28;20631;-85
2021/04/30 06:16:45;;;;;;;8.73;6.93;;;;;;;16.18;100.00;94490.94;5014636;28;20234;-85
2021/04/30 06:19:11;;;;;;;11.27;7.87;;;;;;;16.48;100.00;94546.34;5015025;28;20293;-84
2021/04/30 06:21:44;;;;;;;9.73;7.23;;;;;;;16.54;100.00;94592.34;5015036;28;20193;-85
2021/04/30 06:24:11;;;;;;;9.70;8.40;;;;;;;16.76;100.00;94642.91;5015293;28;20239;-85
2021/04/30 06:26:38;;;;;;;9.00;6.37;;;;;;;16.93;100.00;94661.56;5014870;28;20321;-85
2021/04/30 06:29:05;;;;;;;8.87;5.90;;;;;;;17.34;100.00;94687.78;5014757;28;20281;-85
2021/04/30 06:31:31;;;;;;;7.60;6.17;;;;;;;17.50;100.00;94682.75;5015415;28;20202;-85
2021/04/30 06:33:59;;;;;;;7.73;6.40;;;;;;;17.57;100.00;94678.88;5014434;28;20627;-86
2021/04/30 06:36:26;;;;;;;9.97;8.27;;;;;;;17.46;100.00;94729.44;5014516;28;20204;-85
2021/04/30 06:38:53;;;;;;;10.53;7.37;;;;;;;17.69;100.00;94739.91;5014731;28;20259;-86
2021/04/30 06:41:19;;;;;;;10.73;5.90;;;;;;;18.02;100.00;94735.69;5014694;28;20207;-86
2021/04/30 06:43:55;;;;;;;7.07;5.73;;;;;;;18.22;100.00;94780.38;5014620;28;20338;-86
2021/04/30 06:46:23;;;;;;;6.97;6.17;;;;;;;18.35;100.00;94821.81;5014391;28;20226;-87
2021/04/30 06:48:50;;;;;;;9.23;8.27;;;;;;;18.73;100.00;94853.81;5014687;28;20199;-89
2021/04/30 06:51:24;;;;;;;7.80;6.97;;;;;;;18.78;100.00;94874.41;5014756;28;20191;-86
2021/04/30 06:53:51;;;;;;;8.07;6.13;;;;;;;18.83;100.00;94881.66;5014925;28;20290;-90
2021/04/30 06:56:21;;;;;;;8.67;6.53;;;;;;;18.89;100.00;94854.06;5015276;28;20562;-89
2021/04/30 06:58:57;;;;;;;9.43;8.40;;;;;;;19.17;100.00;94896.53;5015252;28;20207;-85
2021/04/30 07:01:24;;;;;;;34.20;27.30;;;;;;;19.38;100.00;94968.72;5014853;28;20263;-87
2021/04/30 07:03:54;;;;;;;9.70;8.33;;;;;;;19.41;100.00;94946.91;5015861;28;20555;-86
2021/04/30 07:06:21;;;;;;;18.47;13.67;;;;;;;19.76;100.00;94988.44;5014760;28;20297;-89
2021/04/30 07:08:50;;;;;;;13.97;10.10;;;;;;;19.85;100.00;94990.44;5014820;28;20214;-90
2021/04/30 07:11:20;;;;;;;9.03;5.83;;;;;;;19.92;100.00;95024.94;5014849;28;20196;-88
2021/04/30 07:13:47;;;;;;;10.03;5.53;;;;;;;19.88;100.00;95027.28;5014669;28;20207;-88
2021/04/30 07:16:22;;;;;;;8.80;5.27;;;;;;;19.93;100.00;95045.19;5014564;28;20243;-88
2021/04/30 07:18:49;;;;;;;7.47;5.40;;;;;;;20.40;100.00;95066.88;5014977;28;20743;-88
2021/04/30 07:21:16;;;;;;;8.53;5.97;;;;;;;20.97;100.00;95070.94;5014520;28;20206;-87
2021/04/30 07:23:43;;;;;;;7.00;6.00;;;;;;;21.17;100.00;95091.72;5014776;28;20707;-88
2021/04/30 07:26:13;;;;;;;11.20;5.93;;;;;;;21.17;100.00;95123.78;5014552;28;20318;-87
2021/04/30 07:28:40;;;;;;;8.50;6.20;;;;;;;21.55;100.00;95146.06;5014260;28;20196;-88
2021/04/30 07:31:13;;;;;;;11.00;6.17;;;;;;;21.82;100.00;95140.63;5014427;28;20197;-87
2021/04/30 07:33:46;;;;;;;8.67;6.67;;;;;;;21.16;100.00;95164.88;5014285;28;20580;-88
2021/04/30 07:36:19;;;;;;;10.20;6.57;;;;;;;21.42;100.00;95112.53;5014698;28;20214;-87
2021/04/30 07:38:45;;;;;;;17.23;8.90;;;;;;;21.88;100.00;95106.72;5014311;28;20203;-87
2021/04/30 07:41:17;;;;;;;15.23;8.17;;;;;;;22.23;100.00;95184.56;5014111;28;20213;-87
2021/04/30 07:43:44;;;;;;;8.00;6.40;;;;;;;22.88;100.00;95213.81;5013810;28;20195;-87
2021/04/30 07:46:10;;;;;;;8.00;5.60;;;;;;;22.24;100.00;95231.69;5013493;28;20257;-87
2021/04/30 07:48:40;;;;;;;20.53;18.27;;;;;;;22.43;100.00;95178.53;5013105;28;20431;-87
2021/04/30 07:51:07;;;;;;;17.63;9.77;;;;;;;22.94;100.00;95247.66;5013852;28;20199;-87
2021/04/30 07:53:34;;;;;;;10.67;7.33;;;;;;;23.24;100.00;95276.44;5013802;28;20291;-84
2021/04/30 07:56:01;;;;;;;10.63;6.40;;;;;;;23.46;100.00;95278.94;5013271;28;20199;-79
2021/04/30 07:58:28;;;;;;;7.03;5.40;;;;;;;23.64;100.00;95315.19;5013308;28;20203;-78
2021/04/30 08:00:56;;;;;;;9.90;6.07;;;;;;;23.89;100.00;95323.31;5013571;28;20199;-78
2021/04/30 08:03:23;;;;;;;10.10;6.17;;;;;;;24.13;100.00;95355.84;5013576;28;20277;-79
2021/04/30 08:05:50;;;;;;;7.97;6.47;;;;;;;23.79;100.00;95448.59;5009128;28;20238;-78
2021/04/30 08:08:17;;;;;;;6.73;5.93;;;;;;;23.93;100.00;95421.03;5026676;28;20214;-79
2021/04/30 08:10:44;;;;;;;11.13;5.90;;;;;;;24.35;100.00;95444.25;5032449;28;20202;-79
2021/04/30 08:13:12;;;;;;;8.33;5.17;;;;;;;23.88;100.00;95434.41;5032362;28;20583;-79
2021/04/30 08:15:40;;;;;;;7.10;5.70;;;;;;;23.30;100.00;95409.44;5032443;28;20241;-78
2021/04/30 08:18:07;;;;;;;7.33;5.33;;;;;;;23.55;100.00;95462.41;5032559;28;20182;-78
2021/04/30 08:20:34;;;;;;;9.63;5.50;;;;;;;23.69;100.00;95489.59;5032606;28;20203;-80
2021/04/30 08:23:01;;;;;;;7.43;6.00;;;;;;;24.08;100.00;95489.25;5032630;28;20201;-79
2021/04/30 08:25:28;;;;;;;9.67;4.60;;;;;;;23.79;100.00;95500.38;5032578;28;20672;-78
2021/04/30 08:27:55;;;;;;;7.00;5.53;;;;;;;23.44;100.00;95455.38;5032088;28;20203;-78
2021/04/30 08:30:22;;;;;;;7.77;6.23;;;;;;;23.71;100.00;95463.31;5032696;28;20225;-79
2021/04/30 08:32:50;;;;;;;8.17;6.37;;;;;;;23.51;100.00;95453.25;5032433;28;20575;-79
2021/04/30 08:35:17;;;;;;;6.23;5.63;;;;;;;23.94;100.00;95448.69;5032529;28;20252;-79
2021/04/30 08:37:44;;;;;;;11.00;7.27;;;;;;;23.93;100.00;95490.81;5032108;28;20210;-79
2021/04/30 08:40:11;;;;;;;9.03;6.07;;;;;;;23.70;100.00;95496.59;5032193;28;20676;-79
2021/04/30 08:42:39;;;;;;;8.83;5.93;;;;;;;23.90;100.00;95469.88;5032022;28;20671;-79
2021/04/30 08:45:07;;;;;;;11.10;8.60;;;;;;;24.31;100.00;95429.69;5032473;28;20568;-80
2021/04/30 08:47:35;;;;;;;11.03;6.87;;;;;;;24.26;100.00;95461.94;5031891;28;20237;-79
2021/04/30 08:50:04;;;;;;;9.43;6.87;;;;;;;24.56;100.00;95433.53;5031886;28;20209;-80
2021/04/30 08:52:31;;;;;;;9.23;6.63;;;;;;;24.51;100.00;95473.84;5031729;28;20194;-80
2021/04/30 08:54:59;;;;;;;10.43;7.67;;;;;;;23.83;100.00;95474.66;5031837;28;20206;-80
2021/04/30 08:57:26;;;;;;;8.57;6.90;;;;;;;24.15;100.00;95452.25;5031170;28;20285;-80
2021/04/30 08:59:57;;;;;;;8.67;6.93;;;;;;;24.01;100.00;95480.66;5026250;28;20290;-80
2021/04/30 09:02:26;;;;;;;8.57;7.30;;;;;;;24.29;100.00;95456.03;5031962;28;20697;-80
2021/04/30 09:04:53;;;;;;;7.70;6.93;;;;;;;24.41;100.00;95493.41;5030924;28;20210;-79
2021/04/30 09:07:24;;;;;;;14.90;10.67;;;;;;;25.16;100.00;95436.53;5032074;28;20203;-80
2021/04/30 09:10:01;;;;;;;10.83;8.03;;;;;;;24.96;100.00;95491.09;5031243;28;20655;-80
2021/04/30 09:12:29;;;;;;;8.43;7.63;;;;;;;24.66;100.00;95504.22;5031879;28;20196;-80
2021/04/30 09:14:56;;;;;;;8.80;7.93;;;;;;;24.67;100.00;95472.78;5031831;28;20199;-81
2021/04/30 09:17:24;;;;;;;9.63;7.47;;;;;;;24.79;100.00;95512.84;5031456;28;20618;-80
2021/04/30 09:19:53;;;;;;;16.10;14.50;;;;;;;24.53;100.00;95491.31;5031646;28;20286;-80
2021/04/30 09:22:23;;;;;;;8.13;7.27;;;;;;;24.32;100.00;95522.63;5037846;28;20198;-80
2021/04/30 09:24:52;;;;;;;9.80;6.90;;;;;;;24.46;100.00;95519.50;5035676;28;20675;-79
2021/04/30 09:27:38;;;;;;;10.77;6.80;;;;;;;24.94;100.00;95520.09;5034941;28;20194;-80
2021/04/30 09:30:29;;;;;;;15.53;13.83;;;;;;;25.22;100.00;95494.63;5037168;28;20270;-81
2021/04/30 09:33:08;;;;;;;10.20;7.83;;;;;;;24.90;100.00;95504.53;5027210;28;20286;-81
2021/04/30 09:35:35;;;;;;;9.40;8.17;;;;;;;24.81;100.00;95499.94;5036653;28;20187;-80
2021/04/30 09:38:17;;;;;;;8.20;7.33;;;;;;;24.99;100.00;95534.38;5032457;28;20201;-81
2021/04/30 09:40:44;;;;;;;7.90;6.20;;;;;;;25.22;100.00;95570.72;5031973;28;20186;-81
2021/04/30 09:43:12;;;;;;;8.70;7.77;;;;;;;25.09;100.00;95561.25;5031742;28;20203;-80
2021/04/30 09:45:39;;;;;;;8.43;7.03;;;;;;;25.31;100.00;95587.13;5031486;28;20258;-81
2021/04/30 09:48:07;;;;;;;11.87;6.37;;;;;;;25.31;100.00;95636.34;5031427;28;20205;-81
2021/04/30 09:50:35;;;;;;;8.13;6.07;;;;;;;25.30;100.00;95668.88;5032395;28;20201;-80
2021/04/30 09:53:03;;;;;;;15.07;6.23;;;;;;;24.85;100.00;95689.97;5032195;28;20288;-80
2021/04/30 09:55:43;;;;;;;6.10;5.50;;;;;;;24.90;100.00;95676.56;5032008;28;20199;-80
2021/04/30 09:58:21;;;;;;;8.53;5.90;;;;;;;24.94;100.00;95709.09;5031770;28;20190;-80
2021/04/30 10:00:49;;;;;;;6.83;4.97;;;;;;;24.93;100.00;95755.84;5032353;28;20243;-80
2021/04/30 10:03:18;;;;;;;6.47;5.10;;;;;;;25.29;100.00;95737.22;5031749;28;20288;-80
2021/04/30 10:06:05;;;;;;;10.57;5.53;;;;;;;25.69;100.00;95792.19;5031814;28;20783;-80
2021/04/30 10:08:33;;;;;;;7.53;5.27;;;;;;;25.83;100.00;95801.41;5032050;28;20202;-78
2021/04/30 10:11:02;;;;;;;9.40;5.60;;;;;;;25.16;100.00;95784.22;5035681;28;20674;-79
2021/04/30 10:13:29;;;;;;;8.50;5.90;;;;;;;25.38;100.00;95800.97;5035350;28;20206;-79
2021/04/30 10:15:56;;;;;;;8.60;5.60;;;;;;;25.40;100.00;95762.25;5035399;28;20270;-79
2021/04/30 10:18:25;;;;;;;8.13;5.17;;;;;;;25.68;100.00;95787.88;5035752;28;20265;-79
2021/04/30 10:20:52;;;;;;;7.63;5.60;;;;;;;25.46;100.00;95814.97;5034566;28;20191;-78
2021/04/30 10:23:20;;;;;;;9.63;5.00;;;;;;;25.56;100.00;95809.63;5034608;28;20735;-81
2021/04/30 10:25:49;;;;;;;12.00;5.77;;;;;;;25.44;100.00;95854.81;5024909;28;20245;-86
2021/04/30 10:28:26;;;;;;;6.93;5.90;;;;;;;25.67;100.00;95850.84;5036027;28;20203;-86
2021/04/30 10:30:59;;;;;;;8.33;5.20;;;;;;;25.83;100.00;95850.66;5032054;28;20735;-83
2021/04/30 10:33:30;;;;;;;8.63;5.30;;;;;;;26.21;100.00;95862.03;5016291;28;20188;-84
2021/04/30 10:36:02;;;;;;;14.10;5.67;;;;;;;25.85;100.00;95915.81;5033076;28;20199;-85
2021/04/30 10:38:32;;;;;;;6.85;5.43;;;;;;;26.15;100.00;95900.00;5030383;28;20196;-83
2021/04/30 10:41:05;;;;;;;8.60;5.32;;;;;;;26.18;100.00;95864.47;5026219;28;20301;-84
2021/04/30 10:43:33;;;;;;;9.83;6.03;;;;;;;25.76;100.00;95860.84;5029499;28;20691;-82
2021/04/30 10:46:07;;;;;;;13.73;7.53;;;;;;;25.50;100.00;95859.16;5034998;28;20218;-87
2021/04/30 10:48:57;;;;;;;9.63;5.00;;;;;;;26.07;100.00;95914.81;5034553;28;20255;-85
2021/04/30 10:51:24;;;;;;;9.37;5.27;;;;;;;26.30;100.00;95906.25;5034700;28;20676;-88
2021/04/30 10:53:51;;;;;;;6.68;5.07;;;;;;;26.06;100.00;95922.09;5033920;28;20593;-84
2021/04/30 10:56:32;;;;;;;7.20;6.23;;;;;;;26.21;100.00;95959.00;5016068;28;20701;-90
2021/04/30 10:59:00;;;;;;;10.37;6.27;;;;;;;26.37;100.00;95983.31;5015712;28;20207;-84
2021/04/30 11:01:30;;;;;;;6.60;5.93;;;;;;;26.40;100.00;95866.94;5014937;28;20196;-86
2021/04/30 11:04:17;;;;;;;11.63;6.22;;;;;;;26.53;100.00;95861.00;5015028;28;20203;-84
2021/04/30 11:06:48;;;;;;;10.73;6.65;;;;;;;26.77;100.00;95864.78;5015263;28;20606;-85
2021/04/30 11:09:21;;;;;;;9.43;6.55;;;;;;;27.15;100.00;95832.91;5015037;28;20217;-87
2021/04/30 11:11:48;;;;;;;11.40;6.45;;;;;;;26.67;100.00;95912.50;5015207;28;20620;-87
2021/04/30 11:14:38;;;;;;;8.68;7.18;;;;;;;26.61;100.00;95903.63;5015105;28;20230;-88
2021/04/30 11:17:05;;;;;;;9.05;6.10;;;;;;;26.69;100.00;95930.03;5014434;28;20242;-87
2021/04/30 11:19:44;;;;;;;8.05;5.20;;;;;;;26.97;100.00;95899.00;5014772;28;20199;-88
2021/04/30 11:22:13;;;;;;;9.70;6.90;;;;;;;26.82;100.00;95935.97;5013682;28;20187;-87
2021/04/30 11:24:45;;;;;;;8.80;6.40;;;;;;;26.55;100.00;95951.31;5014468;28;20688;-88
2021/04/30 11:27:30;;;;;;;9.15;5.25;;;;;;;26.48;100.00;95971.50;5021209;28;20203;-88
2021/04/30 11:30:19;;;;;;;6.32;5.57;;;;;;;26.34;100.00;96006.22;5035708;28;20255;-87